Main page
METAR-TAF:

METAR-TAF

Airports :

Stinson Municipal Airport

San Antonio, Texas, United States

latitude: 29-20-20N, longitude: 098-28-18W, elevation: 574 ft

Current weather observation

The report was made 46 minutes ago, at 03:53 UTC
Wind 3 mph from the East/Southeast
Temperature 43°F
Humidity 56%
Pressure 30.23 in. Hg
Visibility: 10 miles
Clear sky

METAR: KSSF 210353Z AUTO 11003KT 10SM CLR 06/M02 A3023 RMK AO2 SLP240 T00611017 $

Time: 22:39 (04:39 UTC)

Forecast

The report was made 5 hours and 11 minutes ago, at 23:28 UTC
Forecast valid from 21 at 00 UTC to 21 at 24 UTC
Wind 5 mph from the Southeast
Visibility: 6 miles
Scattered clouds at a height of 25000 ft
From 21 at 1800 UTC
Wind 13 mph from the South/Southeast
Visibility: 6 miles
Few clouds at a height of 25000 ft

TAF: KSSF 202328Z 2100/2124 13004KT P6SM SCT250 FM211800 16011KT P6SM FEW250

Weather observations and forecasts of more than 4000 airports (METAR and TAF reports).

The available stations are represented by yellow and red dots on the map.

Hover mouse over dot to see the name of the station.

Then click to see weather observations and forecasts.

To change the map : click on the green buttons with a black cross to zoom in, on the green button with a dash to zoom out, or on the green arrows for adjacent maps.


METAR-TAF: